createdAt,value
2017-05-18T00:00:53.755Z,15.70
2017-05-18T00:01:53.774Z,15.69
2017-05-18T00:02:53.758Z,15.69
2017-05-18T00:03:53.744Z,15.66
2017-05-18T00:04:53.753Z,15.65
2017-05-18T00:05:53.738Z,15.64
2017-05-18T00:06:53.755Z,15.59
2017-05-18T00:07:53.759Z,15.57
2017-05-18T00:08:53.777Z,15.55
2017-05-18T00:09:53.759Z,15.54
2017-05-18T00:10:53.749Z,15.50
2017-05-18T00:11:53.725Z,15.46
2017-05-18T00:12:53.757Z,15.44
2017-05-18T00:13:53.757Z,15.42
2017-05-18T00:14:53.779Z,15.36
2017-05-18T00:15:53.867Z,15.33
2017-05-18T00:16:53.759Z,15.32
2017-05-18T00:17:53.754Z,15.29
2017-05-18T00:18:53.752Z,15.29
2017-05-18T00:19:53.764Z,15.26
2017-05-18T00:20:53.728Z,15.29
2017-05-18T00:21:53.752Z,15.33
2017-05-18T00:22:53.751Z,15.35
2017-05-18T00:23:53.750Z,15.37
2017-05-18T00:24:53.764Z,15.48
2017-05-18T00:25:53.767Z,15.50
2017-05-18T00:26:53.758Z,15.58
2017-05-18T00:27:53.762Z,15.59
2017-05-18T00:28:53.826Z,15.65
2017-05-18T00:29:53.792Z,15.68
2017-05-18T00:30:53.757Z,15.70
2017-05-18T00:31:53.770Z,15.77
2017-05-18T00:32:53.769Z,15.79
2017-05-18T00:33:53.764Z,15.80
2017-05-18T00:34:53.736Z,15.79
2017-05-18T00:35:53.771Z,15.82
2017-05-18T00:36:53.763Z,15.84
2017-05-18T00:37:53.768Z,15.84
2017-05-18T00:38:53.764Z,15.80
2017-05-18T00:39:53.770Z,15.79
2017-05-18T00:40:53.736Z,15.77
2017-05-18T00:41:53.772Z,15.77
2017-05-18T00:42:53.798Z,15.77
2017-05-18T00:43:53.765Z,15.79
2017-05-18T00:44:53.776Z,15.77
2017-05-18T00:45:53.766Z,15.77
2017-05-18T00:46:53.840Z,15.75
2017-05-18T00:47:53.778Z,15.73
2017-05-18T00:48:53.779Z,15.72
2017-05-18T00:49:53.778Z,15.70
2017-05-18T00:50:53.800Z,15.69
2017-05-18T00:51:53.765Z,15.68
2017-05-18T00:52:53.780Z,15.66
2017-05-18T00:53:53.741Z,15.65
2017-05-18T00:54:53.763Z,15.69
2017-05-18T00:55:53.800Z,15.70
2017-05-18T00:56:53.800Z,15.68
2017-05-18T00:57:53.783Z,15.68
2017-05-18T00:58:53.889Z,15.69
2017-05-18T00:59:53.783Z,15.73
2017-05-18T01:00:53.776Z,15.75
2017-05-18T01:01:53.785Z,15.77
2017-05-18T01:02:53.769Z,15.80
2017-05-18T01:03:53.790Z,15.80
2017-05-18T01:04:53.808Z,15.83
2017-05-18T01:05:53.786Z,15.82
2017-05-18T01:06:53.791Z,15.86
2017-05-18T01:07:53.784Z,15.84
2017-05-18T01:08:53.751Z,15.84
2017-05-18T01:09:53.789Z,15.91
2017-05-18T01:10:53.768Z,15.97
2017-05-18T01:11:53.780Z,16.06
2017-05-18T01:12:53.788Z,16.11
2017-05-18T01:13:53.795Z,16.16
2017-05-18T01:14:53.778Z,16.17
2017-05-18T01:15:53.810Z,16.18
2017-05-18T01:16:53.811Z,16.20
2017-05-18T01:17:53.761Z,16.20
2017-05-18T01:18:53.813Z,16.22
2017-05-18T01:19:53.759Z,16.24
2017-05-18T01:20:53.777Z,16.22
2017-05-18T01:21:53.817Z,16.20
2017-05-18T01:22:53.761Z,16.20
2017-05-18T01:23:53.803Z,16.17
2017-05-18T01:24:53.783Z,16.17
2017-05-18T01:25:53.763Z,16.14
2017-05-18T01:26:53.797Z,16.13
2017-05-18T01:27:53.760Z,16.10
2017-05-18T01:28:53.798Z,16.07
2017-05-18T01:29:53.815Z,16.05
2017-05-18T01:30:53.801Z,16.02
2017-05-18T01:31:53.767Z,15.95
2017-05-18T01:32:53.804Z,15.93
2017-05-18T01:33:53.805Z,15.87
2017-05-18T01:34:53.805Z,15.82
2017-05-18T01:35:53.803Z,15.76
2017-05-18T01:36:53.803Z,15.72
2017-05-18T01:37:53.808Z,15.65
2017-05-18T01:38:53.802Z,15.58
2017-05-18T01:39:53.804Z,15.54
2017-05-18T01:40:53.794Z,15.50
2017-05-18T01:41:53.827Z,15.47
2017-05-18T01:42:53.808Z,15.44
2017-05-18T01:43:53.807Z,15.43
2017-05-18T01:44:53.806Z,15.40
2017-05-18T01:45:53.826Z,15.40
2017-05-18T01:46:53.809Z,15.37
2017-05-18T01:47:53.773Z,15.35
2017-05-18T01:48:53.771Z,15.32
2017-05-18T01:49:53.771Z,15.28
2017-05-18T01:50:53.771Z,15.21
2017-05-18T01:51:53.831Z,15.19
2017-05-18T01:52:53.804Z,15.14
2017-05-18T01:53:53.834Z,15.08
2017-05-18T01:54:53.813Z,15.03
2017-05-18T01:55:53.813Z,14.98
2017-05-18T01:56:53.779Z,14.94
2017-05-18T01:57:53.832Z,14.87
2017-05-18T01:58:53.918Z,14.82
2017-05-18T01:59:53.817Z,14.76
2017-05-18T02:00:53.815Z,14.71
2017-05-18T02:01:53.793Z,14.65
2017-05-18T02:02:53.779Z,14.60
2017-05-18T02:03:53.836Z,14.53
2017-05-18T02:04:53.835Z,14.49
2017-05-18T02:05:53.799Z,14.42
2017-05-18T02:06:53.798Z,14.35
2017-05-18T02:07:53.873Z,14.29
2017-05-18T02:08:53.824Z,14.22
2017-05-18T02:09:53.818Z,14.15
2017-05-18T02:10:53.843Z,14.10
2017-05-18T02:11:53.820Z,14.04
2017-05-18T02:12:53.815Z,13.99
2017-05-18T02:13:53.816Z,13.95
2017-05-18T02:14:53.785Z,13.95
2017-05-18T02:15:53.833Z,13.95
2017-05-18T02:16:53.822Z,13.93
2017-05-18T02:17:53.824Z,13.96
2017-05-18T02:18:53.805Z,13.99
2017-05-18T02:19:53.805Z,13.99
2017-05-18T02:20:53.803Z,14.00
2017-05-18T02:21:53.849Z,13.99
2017-05-18T02:22:53.829Z,13.99
2017-05-18T02:23:53.817Z,13.99
2017-05-18T02:24:53.828Z,14.02
2017-05-18T02:25:53.826Z,14.07
2017-05-18T02:26:53.845Z,14.07
2017-05-18T02:27:53.813Z,14.09
2017-05-18T02:28:53.853Z,14.10
2017-05-18T02:29:53.869Z,14.13
2017-05-18T02:30:53.813Z,14.15
2017-05-18T02:31:53.830Z,14.21
2017-05-18T02:32:53.820Z,14.25
2017-05-18T02:33:53.832Z,14.29
2017-05-18T02:34:53.821Z,14.31
2017-05-18T02:35:53.826Z,14.32
2017-05-18T02:36:53.836Z,14.33
2017-05-18T02:37:53.845Z,14.35
2017-05-18T02:38:53.839Z,14.35
2017-05-18T02:39:53.830Z,14.33
2017-05-18T02:40:53.801Z,14.33
2017-05-18T02:41:53.863Z,14.35
2017-05-18T02:42:53.838Z,14.35
2017-05-18T02:43:53.831Z,14.36
2017-05-18T02:44:53.828Z,14.39
2017-05-18T02:45:53.835Z,14.38
2017-05-18T02:46:53.890Z,14.38
2017-05-18T02:47:53.841Z,14.39
2017-05-18T02:48:53.832Z,14.39
2017-05-18T02:49:53.948Z,14.39
2017-05-18T02:50:53.807Z,14.36
2017-05-18T02:51:53.800Z,14.35
2017-05-18T02:52:53.846Z,14.32
2017-05-18T02:53:53.841Z,14.31
2017-05-18T02:54:53.833Z,14.28
2017-05-18T02:55:53.843Z,14.25
2017-05-18T02:56:53.807Z,14.22
2017-05-18T02:57:53.851Z,14.20
2017-05-18T02:58:53.845Z,14.17
2017-05-18T02:59:53.814Z,14.14
2017-05-18T03:00:53.808Z,14.09
2017-05-18T03:01:53.868Z,14.07
2017-05-18T03:02:53.848Z,14.02
2017-05-18T03:03:53.845Z,13.98
2017-05-18T03:04:53.877Z,13.93
2017-05-18T03:05:53.852Z,13.91
2017-05-18T03:06:53.828Z,13.86
2017-05-18T03:07:53.842Z,13.81
2017-05-18T03:08:53.850Z,13.77
2017-05-18T03:09:53.843Z,13.73
2017-05-18T03:10:53.835Z,13.69
2017-05-18T03:11:53.847Z,13.68
2017-05-18T03:12:53.858Z,13.64
2017-05-18T03:13:53.843Z,13.61
2017-05-18T03:14:53.844Z,13.56
2017-05-18T03:15:53.846Z,13.53
2017-05-18T03:16:53.844Z,13.47
2017-05-18T03:17:53.861Z,13.43
2017-05-18T03:18:53.899Z,13.38
2017-05-18T03:19:53.858Z,13.36
2017-05-18T03:20:53.845Z,13.38
2017-05-18T03:21:53.849Z,13.36
2017-05-18T03:22:53.858Z,13.38
2017-05-18T03:23:53.876Z,13.34
2017-05-18T03:24:53.859Z,13.34
2017-05-18T03:25:53.841Z,13.34
2017-05-18T03:26:53.968Z,13.34
2017-05-18T03:27:53.860Z,13.31
2017-05-18T03:28:53.862Z,13.28
2017-05-18T03:29:53.827Z,13.24
2017-05-18T03:30:53.856Z,13.24
2017-05-18T03:31:53.885Z,13.21
2017-05-18T03:32:53.968Z,13.18
2017-05-18T03:33:53.866Z,13.14
2017-05-18T03:34:53.857Z,13.12
2017-05-18T03:35:53.857Z,13.12
2017-05-18T03:36:53.829Z,13.06
2017-05-18T03:37:53.858Z,13.05
2017-05-18T03:38:53.840Z,13.02
2017-05-18T03:39:53.865Z,13.00
2017-05-18T03:40:53.832Z,13.02
2017-05-18T03:41:53.970Z,13.02
2017-05-18T03:42:53.867Z,13.02
2017-05-18T03:43:53.847Z,13.00
2017-05-18T03:44:53.871Z,12.98
2017-05-18T03:45:53.865Z,12.98
2017-05-18T03:46:53.866Z,12.95
2017-05-18T03:47:53.872Z,12.95
2017-05-18T03:48:53.888Z,12.92
2017-05-18T03:49:53.941Z,12.94
2017-05-18T03:50:53.868Z,12.96
2017-05-18T03:51:53.833Z,13.07
2017-05-18T03:52:53.865Z,13.14
2017-05-18T03:53:53.872Z,13.14
2017-05-18T03:54:53.872Z,13.21
2017-05-18T03:55:53.828Z,13.27
2017-05-18T03:56:53.978Z,13.27
2017-05-18T03:57:53.838Z,13.31
2017-05-18T03:58:53.840Z,13.32
2017-05-18T03:59:53.878Z,13.36
2017-05-18T04:00:53.877Z,13.35
2017-05-18T04:01:53.870Z,13.36
2017-05-18T04:02:53.880Z,13.38
2017-05-18T04:03:53.875Z,13.40
2017-05-18T04:04:53.869Z,13.49
2017-05-18T04:05:53.877Z,13.50
2017-05-18T04:06:53.875Z,13.57
2017-05-18T04:07:53.855Z,13.59
2017-05-18T04:08:53.883Z,13.59
2017-05-18T04:09:53.900Z,13.62
2017-05-18T04:10:53.880Z,13.62
2017-05-18T04:11:53.874Z,13.59
2017-05-18T04:12:53.900Z,13.59
2017-05-18T04:13:53.879Z,13.56
2017-05-18T04:14:53.877Z,13.53
2017-05-18T04:15:53.885Z,13.51
2017-05-18T04:16:53.844Z,13.51
2017-05-18T04:17:53.882Z,13.50
2017-05-18T04:18:53.847Z,13.53
2017-05-18T04:19:53.890Z,13.54
2017-05-18T04:20:53.844Z,13.54
2017-05-18T04:21:53.887Z,13.56
2017-05-18T04:22:53.883Z,13.59
2017-05-18T04:23:53.888Z,13.57
2017-05-18T04:24:53.885Z,13.61
2017-05-18T04:25:53.889Z,13.64
2017-05-18T04:26:53.908Z,13.65
2017-05-18T04:27:53.890Z,13.66
2017-05-18T04:28:53.870Z,13.68
2017-05-18T04:29:53.890Z,13.69
2017-05-18T04:30:53.850Z,13.73
2017-05-18T04:31:53.893Z,13.76
2017-05-18T04:32:53.892Z,13.77
2017-05-18T04:33:53.885Z,13.81
2017-05-18T04:34:53.896Z,13.84
2017-05-18T04:35:53.914Z,13.86
2017-05-18T04:36:53.916Z,13.98
2017-05-18T04:37:53.858Z,14.07
2017-05-18T04:38:53.853Z,14.09
2017-05-18T04:39:53.899Z,14.13
2017-05-18T04:40:53.873Z,14.17
2017-05-18T04:41:53.875Z,14.18
2017-05-18T04:42:53.890Z,14.20
2017-05-18T04:43:53.892Z,14.24
2017-05-18T04:44:53.892Z,14.29
2017-05-18T04:45:53.862Z,14.32
2017-05-18T04:46:53.919Z,14.35
2017-05-18T04:47:53.898Z,14.36
2017-05-18T04:48:53.900Z,14.42
2017-05-18T04:49:53.861Z,14.44
2017-05-18T04:50:53.862Z,14.47
2017-05-18T04:51:53.922Z,14.50
2017-05-18T04:52:53.903Z,14.53
2017-05-18T04:53:53.895Z,14.55
2017-05-18T04:54:53.898Z,14.62
2017-05-18T04:55:53.893Z,14.71
2017-05-18T04:56:53.894Z,14.80
2017-05-18T04:57:53.898Z,14.86
2017-05-18T04:58:53.906Z,14.89
2017-05-18T04:59:53.884Z,15.00
2017-05-18T05:00:53.870Z,15.06
2017-05-18T05:01:53.905Z,15.18
2017-05-18T05:02:53.930Z,15.28
2017-05-18T05:03:53.909Z,15.33
2017-05-18T05:04:53.909Z,15.37
2017-05-18T05:05:53.907Z,15.42
2017-05-18T05:06:53.911Z,15.50
2017-05-18T05:07:54.011Z,15.57
2017-05-18T05:08:53.891Z,15.64
2017-05-18T05:09:53.909Z,15.70
2017-05-18T05:10:53.910Z,15.82
2017-05-18T05:11:53.891Z,15.99
2017-05-18T05:12:53.913Z,16.13
2017-05-18T05:13:54.015Z,16.18
2017-05-18T05:14:53.874Z,16.22
2017-05-18T05:15:53.906Z,16.28
2017-05-18T05:16:53.906Z,16.33
2017-05-18T05:17:53.909Z,16.36
2017-05-18T05:18:53.916Z,16.41
2017-05-18T05:19:53.876Z,16.47
2017-05-18T05:20:53.917Z,16.57
2017-05-18T05:21:53.889Z,16.63
2017-05-18T05:22:53.923Z,16.70
2017-05-18T05:23:53.919Z,16.76
2017-05-18T05:24:53.920Z,16.81
2017-05-18T05:25:53.921Z,16.87
2017-05-18T05:26:53.937Z,16.92
2017-05-18T05:27:53.871Z,16.97
2017-05-18T05:28:53.925Z,17.01
2017-05-18T05:29:53.914Z,17.06
2017-05-18T05:30:53.919Z,17.12
2017-05-18T05:31:53.896Z,17.16
2017-05-18T05:32:53.885Z,17.24
2017-05-18T05:33:53.944Z,17.31
2017-05-18T05:34:53.945Z,17.36
2017-05-18T05:35:53.921Z,17.47
2017-05-18T05:36:53.884Z,17.57
2017-05-18T05:37:53.901Z,17.68
2017-05-18T05:38:53.924Z,17.69
2017-05-18T05:39:53.946Z,17.71
2017-05-18T05:40:53.927Z,17.72
2017-05-18T05:41:53.946Z,17.79
2017-05-18T05:42:53.983Z,17.88
2017-05-18T05:43:53.925Z,18.00
2017-05-18T05:44:53.930Z,18.18
2017-05-18T05:45:53.927Z,18.41
2017-05-18T05:46:53.912Z,18.61
2017-05-18T05:47:53.932Z,18.77
2017-05-18T05:48:53.922Z,18.92
2017-05-18T05:49:53.931Z,19.08
2017-05-18T05:50:53.936Z,19.25
2017-05-18T05:51:53.983Z,19.39
2017-05-18T05:52:53.924Z,19.49
2017-05-18T05:53:53.953Z,19.62
2017-05-18T05:54:53.935Z,19.76
2017-05-18T05:56:53.913Z,19.96
2017-05-18T05:57:53.936Z,20.06
2017-05-18T05:58:53.956Z,20.18
2017-05-18T05:59:53.898Z,20.30
2017-05-18T06:00:53.951Z,20.38
2017-05-18T06:01:53.959Z,20.46
2017-05-18T06:02:53.900Z,20.61
2017-05-18T06:03:53.930Z,20.75
2017-05-18T06:04:53.939Z,20.83
2017-05-18T06:05:53.916Z,20.88
2017-05-18T06:06:53.946Z,20.93
2017-05-18T06:07:53.914Z,20.95
2017-05-18T06:08:53.941Z,21.01
2017-05-18T06:09:53.941Z,21.06
2017-05-18T06:10:53.947Z,21.05
2017-05-18T06:11:53.932Z,21.05
2017-05-18T06:12:53.935Z,21.18
2017-05-18T06:13:53.920Z,21.25
2017-05-18T06:14:53.936Z,21.34
2017-05-18T06:15:53.937Z,21.40
2017-05-18T06:16:53.943Z,21.50
2017-05-18T06:17:53.945Z,21.53
2017-05-18T06:18:53.947Z,21.45
2017-05-18T06:19:53.967Z,21.50
2017-05-18T06:20:53.960Z,21.56
2017-05-18T06:21:53.941Z,21.56
2017-05-18T06:22:53.927Z,21.72
2017-05-18T06:23:53.942Z,21.84
2017-05-18T06:24:53.922Z,21.86
2017-05-18T06:25:53.941Z,21.76
2017-05-18T06:26:53.940Z,21.67
2017-05-18T06:27:53.952Z,21.61
2017-05-18T06:28:53.946Z,21.62
2017-05-18T06:29:53.914Z,21.72
2017-05-18T06:30:53.910Z,21.83
2017-05-18T06:31:53.946Z,21.90
2017-05-18T06:32:53.945Z,21.83
2017-05-18T06:33:53.974Z,21.83
2017-05-18T06:34:53.952Z,21.94
2017-05-18T06:35:53.955Z,22.09
2017-05-18T06:36:53.955Z,22.19
2017-05-18T06:37:53.939Z,22.25
2017-05-18T06:38:53.951Z,22.16
2017-05-18T06:39:53.959Z,22.28
2017-05-18T06:40:53.918Z,22.41
2017-05-18T06:41:53.977Z,22.53
2017-05-18T06:42:53.981Z,22.67
2017-05-18T06:43:53.919Z,22.86
2017-05-18T06:44:53.975Z,22.86
2017-05-18T06:45:53.957Z,22.87
2017-05-18T06:46:53.955Z,22.90
2017-05-18T06:47:53.953Z,22.91
2017-05-18T06:48:53.955Z,22.80
2017-05-18T06:49:54.003Z,22.83
2017-05-18T06:50:53.957Z,22.77
2017-05-18T06:51:53.924Z,22.71
2017-05-18T06:52:53.925Z,22.63
2017-05-18T06:53:53.956Z,22.75
2017-05-18T06:54:53.972Z,22.84
2017-05-18T06:55:53.964Z,22.77
2017-05-18T06:56:53.962Z,22.72
2017-05-18T06:57:53.968Z,22.71
2017-05-18T06:58:53.972Z,22.56
2017-05-18T06:59:53.966Z,22.56
2017-05-18T07:00:53.959Z,22.65
2017-05-18T07:01:53.969Z,22.72
2017-05-18T07:02:53.988Z,22.77
2017-05-18T07:03:53.911Z,22.82
2017-05-18T07:04:53.876Z,22.84
2017-05-18T07:05:53.990Z,22.91
2017-05-18T07:06:53.907Z,22.94
2017-05-18T07:07:53.912Z,22.98
2017-05-18T07:08:53.917Z,22.98
2017-05-18T07:09:53.867Z,23.01
2017-05-18T07:10:53.915Z,23.04
2017-05-18T07:11:53.912Z,23.20
2017-05-18T07:12:53.912Z,23.30
2017-05-18T07:13:53.973Z,23.35
2017-05-18T07:14:53.977Z,23.37
2017-05-18T07:15:53.975Z,23.42
2017-05-18T07:16:53.969Z,23.58
2017-05-18T07:17:53.943Z,23.71
2017-05-18T07:18:53.963Z,23.75
2017-05-18T07:19:53.946Z,23.80
2017-05-18T07:20:54.028Z,23.85
2017-05-18T07:21:53.974Z,24.08
2017-05-18T07:22:53.983Z,24.26
2017-05-18T07:23:53.949Z,24.27
2017-05-18T07:24:53.947Z,24.27
2017-05-18T07:25:53.948Z,24.47
2017-05-18T07:26:53.952Z,24.49
2017-05-18T07:27:53.948Z,24.36
2017-05-18T07:28:53.952Z,24.41
2017-05-18T07:29:53.950Z,24.42
2017-05-18T07:30:53.950Z,24.56
2017-05-18T07:31:53.956Z,24.68
2017-05-18T07:32:53.972Z,24.59
2017-05-18T07:33:53.979Z,24.66
2017-05-18T07:34:54.092Z,24.56
2017-05-18T07:35:54.028Z,24.77
2017-05-18T07:36:53.983Z,24.81
2017-05-18T07:37:53.996Z,24.78
2017-05-18T07:38:53.987Z,24.89
2017-05-18T07:39:53.982Z,25.02
2017-05-18T07:40:54.013Z,24.95
2017-05-18T07:41:53.995Z,25.11
2017-05-18T07:42:54.034Z,25.20
2017-05-18T07:43:54.017Z,25.09
2017-05-18T07:44:53.997Z,24.98
2017-05-18T07:45:53.992Z,25.12
2017-05-18T07:46:53.997Z,25.24
2017-05-18T07:47:53.993Z,25.13
2017-05-18T07:48:54.025Z,25.30
2017-05-18T07:49:53.996Z,25.23
2017-05-18T07:50:54.032Z,25.42
2017-05-18T07:51:53.959Z,25.46
2017-05-18T07:52:54.002Z,25.55
2017-05-18T07:53:53.990Z,25.44
2017-05-18T07:54:53.997Z,25.06
2017-05-18T07:55:53.955Z,24.77
2017-05-18T07:56:53.990Z,24.79
2017-05-18T07:57:53.984Z,25.05
2017-05-18T07:58:53.985Z,25.15
2017-05-18T07:59:53.990Z,25.15
2017-05-18T08:00:53.992Z,25.31
2017-05-18T08:01:53.990Z,25.44
2017-05-18T08:02:53.991Z,25.66
2017-05-18T08:03:54.025Z,25.71
2017-05-18T08:04:54.006Z,25.66
2017-05-18T08:05:54.001Z,25.73
2017-05-18T08:06:54.105Z,25.45
2017-05-18T08:07:54.029Z,25.45
2017-05-18T08:08:54.019Z,25.70
2017-05-18T08:09:54.027Z,25.63
2017-05-18T08:10:53.999Z,25.52
2017-05-18T08:11:53.996Z,25.38
2017-05-18T08:12:54.047Z,25.48
2017-05-18T08:13:54.028Z,25.75
2017-05-18T08:14:53.992Z,25.92
2017-05-18T08:15:54.005Z,26.02
2017-05-18T08:16:53.967Z,26.06
2017-05-18T08:17:53.995Z,25.81
2017-05-18T08:18:54.012Z,25.71
2017-05-18T08:19:53.976Z,25.84
2017-05-18T08:20:54.013Z,25.89
2017-05-18T08:21:54.031Z,26.03
2017-05-18T08:22:54.001Z,25.95
2017-05-18T08:23:53.976Z,25.99
2017-05-18T08:24:53.987Z,26.17
2017-05-18T08:25:53.982Z,26.22
2017-05-18T08:26:53.980Z,26.21
2017-05-18T08:27:53.980Z,26.11
2017-05-18T08:28:54.005Z,25.86
2017-05-18T08:29:53.984Z,25.82
2017-05-18T08:30:53.980Z,26.04
2017-05-18T08:31:53.983Z,26.17
2017-05-18T08:32:53.986Z,26.15
2017-05-18T08:33:54.010Z,26.04
2017-05-18T08:34:54.007Z,26.15
2017-05-18T08:35:54.007Z,26.45
2017-05-18T08:36:54.009Z,26.72
2017-05-18T08:37:54.015Z,26.66
2017-05-18T08:38:54.010Z,26.48
2017-05-18T08:39:54.002Z,26.51
2017-05-18T08:40:54.011Z,26.52
2017-05-18T08:41:54.009Z,26.70
2017-05-18T08:42:54.012Z,26.68
2017-05-18T08:43:54.013Z,26.85
2017-05-18T08:44:54.012Z,27.15
2017-05-18T08:45:54.007Z,27.17
2017-05-18T08:46:54.020Z,27.15
2017-05-18T08:47:54.027Z,27.01
2017-05-18T08:48:54.025Z,26.75
2017-05-18T08:49:54.015Z,26.90
2017-05-18T08:50:54.019Z,26.84
2017-05-18T08:51:54.031Z,26.90
2017-05-18T08:52:54.033Z,26.97
2017-05-18T08:53:53.994Z,27.25
2017-05-18T08:54:53.998Z,27.23
2017-05-18T08:55:53.998Z,27.18
2017-05-18T08:56:54.000Z,27.32
2017-05-18T08:57:54.002Z,27.41
2017-05-18T08:58:54.000Z,27.55
2017-05-18T08:59:53.999Z,27.68
2017-05-18T09:00:54.003Z,27.95
2017-05-18T09:01:54.003Z,28.00
2017-05-18T09:02:54.012Z,28.29
2017-05-18T09:03:54.003Z,28.55
2017-05-18T09:04:54.023Z,28.11
2017-05-18T09:05:54.026Z,27.47
2017-05-18T09:06:54.025Z,27.03
2017-05-18T09:07:54.024Z,26.70
2017-05-18T09:08:54.023Z,26.89
2017-05-18T09:09:54.026Z,27.07
2017-05-18T09:10:54.024Z,27.08
2017-05-18T09:11:54.020Z,26.88
2017-05-18T09:12:54.030Z,26.70
2017-05-18T09:13:54.019Z,26.95
2017-05-18T09:14:54.021Z,27.10
2017-05-18T09:15:54.016Z,27.03
2017-05-18T09:16:54.019Z,27.06
2017-05-18T09:17:54.027Z,27.11
2017-05-18T09:18:54.019Z,27.12
2017-05-18T09:19:54.027Z,27.01
2017-05-18T09:20:54.020Z,26.77
2017-05-18T09:21:54.027Z,26.85
2017-05-18T09:22:54.022Z,26.77
2017-05-18T09:23:54.018Z,26.82
2017-05-18T09:24:54.010Z,26.95
2017-05-18T09:25:54.012Z,27.08
2017-05-18T09:26:54.011Z,27.30
2017-05-18T09:27:54.014Z,27.40
2017-05-18T09:28:54.012Z,27.36
2017-05-18T09:29:54.014Z,27.51
2017-05-18T09:30:54.016Z,27.47
2017-05-18T09:31:54.015Z,27.50
2017-05-18T09:32:54.016Z,27.58
2017-05-18T09:33:54.015Z,27.74
2017-05-18T09:34:54.018Z,27.84
2017-05-18T09:35:54.016Z,27.85
2017-05-18T09:36:54.017Z,27.77
2017-05-18T09:37:54.017Z,27.68
2017-05-18T09:38:54.020Z,27.68
2017-05-18T09:39:54.021Z,27.74
2017-05-18T09:40:54.121Z,27.61
2017-05-18T09:41:54.024Z,27.48
2017-05-18T09:42:54.019Z,27.40
2017-05-18T09:43:54.022Z,27.63
2017-05-18T09:44:54.042Z,27.73
2017-05-18T09:45:54.040Z,27.57
2017-05-18T09:46:54.048Z,27.68
2017-05-18T09:47:54.046Z,27.54
2017-05-18T09:48:54.045Z,27.63
2017-05-18T09:49:54.037Z,27.74
2017-05-18T09:50:54.032Z,27.54
2017-05-18T09:51:54.048Z,27.48
2017-05-18T09:52:54.063Z,27.47
2017-05-18T09:53:54.046Z,27.37
2017-05-18T09:54:54.130Z,27.47
2017-05-18T09:55:54.028Z,27.63
2017-05-18T09:56:54.021Z,27.86
2017-05-18T09:57:54.027Z,27.77
2017-05-18T09:58:54.029Z,27.88
2017-05-18T09:59:54.032Z,27.48
2017-05-18T10:00:54.032Z,27.55
2017-05-18T10:01:54.030Z,27.55
2017-05-18T10:02:54.044Z,27.78
2017-05-18T10:03:54.029Z,27.73
2017-05-18T10:04:54.055Z,28.00
2017-05-18T10:05:54.026Z,28.29
2017-05-18T10:06:54.060Z,28.54
2017-05-18T10:07:54.056Z,28.51
2017-05-18T10:08:54.057Z,28.61
2017-05-18T10:09:54.061Z,28.86
2017-05-18T10:10:54.024Z,28.98
2017-05-18T10:11:54.060Z,28.53
2017-05-18T10:12:54.060Z,28.62
2017-05-18T10:13:54.061Z,29.01
2017-05-18T10:14:54.057Z,29.46
2017-05-18T10:15:54.063Z,29.72
2017-05-18T10:16:54.056Z,29.83
2017-05-18T10:17:54.048Z,30.02
2017-05-18T10:18:54.051Z,30.19
2017-05-18T10:19:54.052Z,30.21
2017-05-18T10:20:54.049Z,30.41
2017-05-18T10:21:54.050Z,30.41
2017-05-18T10:22:54.055Z,30.16
2017-05-18T10:23:54.057Z,29.83
2017-05-18T10:24:54.053Z,29.23
2017-05-18T10:25:54.051Z,28.80
2017-05-18T10:26:54.051Z,28.68
2017-05-18T10:27:54.052Z,28.11
2017-05-18T10:28:54.059Z,27.55
2017-05-18T10:29:54.054Z,27.47
2017-05-18T10:30:54.053Z,27.06
2017-05-18T10:31:54.124Z,26.90
2017-05-18T10:32:54.058Z,26.84
2017-05-18T10:33:54.062Z,26.90
2017-05-18T10:34:53.964Z,26.99
2017-05-18T10:35:53.969Z,27.10
2017-05-18T10:36:54.034Z,27.06
2017-05-18T10:37:53.978Z,27.06
2017-05-18T10:38:54.034Z,26.88
2017-05-18T10:39:54.011Z,26.78
2017-05-18T10:40:54.039Z,26.89
2017-05-18T10:41:53.973Z,26.97
2017-05-18T10:42:54.033Z,27.03
2017-05-18T10:43:54.021Z,26.95
2017-05-18T10:44:54.077Z,26.90
2017-05-18T10:45:54.077Z,26.92
2017-05-18T10:46:54.059Z,26.93
2017-05-18T10:47:54.056Z,26.96
2017-05-18T10:48:54.080Z,26.82
2017-05-18T10:49:54.083Z,26.72
2017-05-18T10:50:54.090Z,26.90
2017-05-18T10:51:54.102Z,27.03
2017-05-18T10:52:54.106Z,27.01
2017-05-18T10:53:54.086Z,27.06
2017-05-18T10:54:54.053Z,27.07
2017-05-18T10:55:54.054Z,27.28
2017-05-18T10:56:54.055Z,27.54
2017-05-18T10:57:54.062Z,27.63
2017-05-18T10:58:54.057Z,27.59
2017-05-18T10:59:54.061Z,27.44
2017-05-18T11:00:54.059Z,27.26
2017-05-18T11:01:54.060Z,27.28
2017-05-18T11:02:54.062Z,27.30
2017-05-18T11:03:54.058Z,27.43
2017-05-18T11:04:54.086Z,27.32
2017-05-18T11:05:54.087Z,27.37
2017-05-18T11:06:54.117Z,27.58
2017-05-18T11:07:54.116Z,27.75
2017-05-18T11:08:54.088Z,27.62
2017-05-18T11:09:54.057Z,27.62
2017-05-18T11:10:54.084Z,27.71
2017-05-18T11:11:54.097Z,27.43
2017-05-18T11:12:54.102Z,27.52
2017-05-18T11:13:54.116Z,27.40
2017-05-18T11:14:54.092Z,27.57
2017-05-18T11:15:54.062Z,27.75
2017-05-18T11:16:54.094Z,27.81
2017-05-18T11:17:54.090Z,28.02
2017-05-18T11:18:54.100Z,28.13
2017-05-18T11:19:54.115Z,27.98
2017-05-18T11:20:54.114Z,27.86
2017-05-18T11:21:54.116Z,27.65
2017-05-18T11:22:54.101Z,27.66
2017-05-18T11:23:54.105Z,27.70
2017-05-18T11:24:54.060Z,27.54
2017-05-18T11:25:54.123Z,27.66
2017-05-18T11:26:54.109Z,27.77
2017-05-18T11:27:54.107Z,27.80
2017-05-18T11:28:54.102Z,27.71
2017-05-18T11:29:54.106Z,27.73
2017-05-18T11:30:54.110Z,27.75
2017-05-18T11:31:54.103Z,27.68
2017-05-18T11:32:54.110Z,27.62
2017-05-18T11:33:54.112Z,27.48
2017-05-18T11:34:54.076Z,27.29
2017-05-18T11:35:54.115Z,27.11
2017-05-18T11:36:54.104Z,27.01
2017-05-18T11:37:54.077Z,26.84
2017-05-18T11:38:54.083Z,26.60
2017-05-18T11:39:54.123Z,26.49
2017-05-18T11:40:54.141Z,26.37
2017-05-18T11:41:54.114Z,26.47
2017-05-18T11:42:54.124Z,26.47
2017-05-18T11:43:54.115Z,26.51
2017-05-18T11:44:54.083Z,26.62
2017-05-18T11:45:54.087Z,26.66
2017-05-18T11:46:54.084Z,26.74
2017-05-18T11:47:54.085Z,26.64
2017-05-18T11:48:54.088Z,26.58
2017-05-18T11:49:54.090Z,26.54
2017-05-18T11:50:54.087Z,26.49
2017-05-18T11:51:54.092Z,26.44
2017-05-18T11:52:54.091Z,26.45
2017-05-18T11:53:54.093Z,26.38
2017-05-18T11:54:54.124Z,26.33
2017-05-18T11:55:54.118Z,26.14
2017-05-18T11:56:54.125Z,26.07
2017-05-18T11:57:54.149Z,26.04
2017-05-18T11:58:54.129Z,26.00
2017-05-18T11:59:54.128Z,26.11
2017-05-18T12:00:54.118Z,26.29
2017-05-18T12:01:54.090Z,26.37
2017-05-18T12:02:54.138Z,26.48
2017-05-18T12:03:54.121Z,26.58
2017-05-18T12:04:54.101Z,26.70
2017-05-18T12:05:54.095Z,26.75
2017-05-18T12:06:54.099Z,26.78
2017-05-18T12:07:54.095Z,26.75
2017-05-18T12:08:54.098Z,26.49
2017-05-18T12:09:54.098Z,26.26
2017-05-18T12:10:54.097Z,25.99
2017-05-18T12:11:54.104Z,25.92
2017-05-18T12:12:54.102Z,25.80
2017-05-18T12:13:54.103Z,25.70
2017-05-18T12:14:54.135Z,25.63
2017-05-18T12:15:54.124Z,25.64
2017-05-18T12:16:54.127Z,25.67
2017-05-18T12:17:54.128Z,25.57
2017-05-18T12:18:54.138Z,25.59
2017-05-18T12:19:54.102Z,25.51
2017-05-18T12:20:54.135Z,25.44
2017-05-18T12:21:54.136Z,25.38
2017-05-18T12:22:54.163Z,25.33
2017-05-18T12:23:54.129Z,25.26
2017-05-18T12:24:54.106Z,25.23
2017-05-18T12:25:54.108Z,25.17
2017-05-18T12:26:54.139Z,25.11
2017-05-18T12:27:54.202Z,25.09
2017-05-18T12:28:54.180Z,25.12
2017-05-18T12:29:54.107Z,25.13
2017-05-18T12:30:54.182Z,25.15
2017-05-18T12:31:54.135Z,25.01
2017-05-18T12:32:54.124Z,24.70
2017-05-18T12:33:54.125Z,24.44
2017-05-18T12:34:54.142Z,24.11
2017-05-18T12:35:54.146Z,23.69
2017-05-18T12:36:54.145Z,23.35
2017-05-18T12:37:54.146Z,23.06
2017-05-18T12:38:54.115Z,22.75
2017-05-18T12:39:54.146Z,22.13
2017-05-18T12:40:54.152Z,21.61
2017-05-18T12:41:54.252Z,20.94
2017-05-18T12:42:54.151Z,20.34
2017-05-18T12:43:54.147Z,19.66
2017-05-18T12:44:54.130Z,19.29
2017-05-18T12:45:54.115Z,19.05
2017-05-18T12:46:54.141Z,18.84
2017-05-18T12:47:54.146Z,18.65
2017-05-18T12:48:54.130Z,18.59
2017-05-18T12:49:54.141Z,18.57
2017-05-18T12:50:54.149Z,18.54
2017-05-18T12:51:54.145Z,18.51
2017-05-18T12:52:54.135Z,18.52
2017-05-18T12:53:54.148Z,18.61